Time;durP1;ratioP1;P1;durP2;ratioP2;P2;SDS_P1;SDS_P2;PMS_P1;PMS_P2;Temp;Humidity;BMP_temperature;BMP_pressure;BME280_temperature;BME280_humidity;BME280_pressure;Samples;Min_cycle;Max_cycle;Signal;HPM_P1;HPM_P2
2021/11/26 00:00:44;;;;;;;14.07;11.15;;;7.70;99.90;;;;;;6244299;23;20034;-77
2021/11/26 00:03:09;;;;;;;12.20;10.57;;;7.70;99.90;;;;;;6242591;23;20000;-77
2021/11/26 00:05:35;;;;;;;11.50;10.30;;;7.60;99.90;;;;;;6244337;23;20379;-77
2021/11/26 00:08:01;;;;;;;11.32;10.00;;;7.70;99.90;;;;;;6242770;23;20015;-77
2021/11/26 00:10:27;;;;;;;9.98;8.98;;;7.70;99.90;;;;;;6242622;23;20035;-77
2021/11/26 00:12:57;;;;;;;11.73;10.52;;;7.70;99.90;;;;;;6244109;23;20450;-77
2021/11/26 00:15:35;;;;;;;12.75;10.00;;;7.70;99.90;;;;;;6244211;22;20054;-77
2021/11/26 00:18:16;;;;;;;14.48;12.07;;;7.70;99.90;;;;;;6244526;22;20340;-77
2021/11/26 00:20:41;;;;;;;12.75;11.30;;;7.70;99.90;;;;;;6244688;22;20054;-77
2021/11/26 00:23:07;;;;;;;17.77;12.30;;;7.60;99.90;;;;;;6244801;23;20019;-77
2021/11/26 00:25:34;;;;;;;14.73;11.60;;;7.60;99.90;;;;;;6243190;23;20008;-78
2021/11/26 00:27:59;;;;;;;15.32;11.25;;;7.60;99.90;;;;;;6244231;22;20413;-77
2021/11/26 00:30:25;;;;;;;14.75;11.25;;;7.60;99.90;;;;;;6244450;23;20001;-78
2021/11/26 00:32:51;;;;;;;15.45;12.10;;;7.60;99.90;;;;;;6242761;23;20027;-77
2021/11/26 00:35:17;;;;;;;14.52;11.63;;;7.60;99.90;;;;;;6242533;23;20082;-77
2021/11/26 00:37:42;;;;;;;15.38;12.25;;;7.60;99.90;;;;;;6244176;22;20000;-77
2021/11/26 00:40:08;;;;;;;13.07;11.38;;;7.60;99.90;;;;;;6243919;22;20068;-77
2021/11/26 00:42:34;;;;;;;15.70;11.90;;;7.60;99.90;;;;;;6244028;22;20407;-77
2021/11/26 00:45:00;;;;;;;14.43;11.57;;;7.60;99.90;;;;;;6242592;23;20053;-78
2021/11/26 00:47:26;;;;;;;14.82;12.40;;;7.60;99.90;;;;;;6241765;23;20000;-77
2021/11/26 00:49:52;;;;;;;12.40;10.07;;;7.60;99.90;;;;;;6242175;23;20011;-77
2021/11/26 00:52:18;;;;;;;13.07;10.63;;;7.50;99.90;;;;;;6244237;22;20490;-77
2021/11/26 00:54:44;;;;;;;13.70;10.82;;;7.60;99.90;;;;;;6242361;23;20004;-77
2021/11/26 00:57:11;;;;;;;13.27;10.95;;;7.60;99.90;;;;;;6243775;22;20448;-77
2021/11/26 00:59:38;;;;;;;16.13;11.40;;;7.60;99.90;;;;;;6242149;23;20093;-77
2021/11/26 01:02:05;;;;;;;15.10;10.95;;;7.60;99.90;;;;;;6243845;22;20000;-77
2021/11/26 01:04:31;;;;;;;14.00;11.00;;;7.60;99.90;;;;;;6243851;22;20503;-77
2021/11/26 01:06:57;;;;;;;14.70;11.48;;;7.60;99.90;;;;;;6243821;22;20003;-77
2021/11/26 01:09:23;;;;;;;14.32;11.07;;;7.60;99.90;;;;;;6242474;23;20004;-77
2021/11/26 01:11:49;;;;;;;13.07;11.10;;;7.60;99.90;;;;;;6242967;23;20099;-82
2021/11/26 01:14:15;;;;;;;13.88;10.98;;;7.60;99.90;;;;;;6245051;22;20032;-77
2021/11/26 01:16:41;;;;;;;15.45;12.27;;;7.60;99.90;;;;;;6244730;23;20008;-77
2021/11/26 01:19:07;;;;;;;15.35;12.25;;;7.60;99.90;;;;;;6245572;22;20396;-77
2021/11/26 01:21:33;;;;;;;15.35;11.68;;;7.70;99.90;;;;;;6243672;23;20083;-77
2021/11/26 01:23:58;;;;;;;14.52;10.70;;;7.70;99.90;;;;;;6242528;23;20474;-77
2021/11/26 01:26:25;;;;;;;13.15;11.75;;;7.70;99.90;;;;;;6243899;23;20014;-77
2021/11/26 01:28:51;;;;;;;14.48;11.25;;;7.70;99.90;;;;;;6243707;22;20007;-77
2021/11/26 01:31:18;;;;;;;12.80;10.50;;;7.70;99.90;;;;;;6242413;23;20008;-77
2021/11/26 01:33:45;;;;;;;14.45;11.07;;;7.70;99.90;;;;;;6242162;23;20011;-77
2021/11/26 01:36:10;;;;;;;12.57;11.05;;;7.70;99.90;;;;;;6243836;22;20008;-77
2021/11/26 01:38:36;;;;;;;14.60;10.93;;;7.70;99.90;;;;;;6243933;23;20331;-77
2021/11/26 01:41:04;;;;;;;15.20;11.52;;;7.70;99.90;;;;;;6242171;23;20004;-77
2021/11/26 01:43:30;;;;;;;14.98;11.20;;;7.60;99.90;;;;;;6243764;22;19996;-77
2021/11/26 01:46:06;;;;;;;14.07;10.35;;;7.60;99.90;;;;;;6242298;23;20034;-77
2021/11/26 01:48:32;;;;;;;13.13;10.60;;;7.70;99.90;;;;;;6242179;23;20011;-77
2021/11/26 01:50:58;;;;;;;14.80;11.57;;;7.70;99.90;;;;;;6242297;23;20008;-77
2021/11/26 01:53:23;;;;;;;13.65;10.93;;;7.70;99.90;;;;;;6243854;22;20010;-77
2021/11/26 01:55:49;;;;;;;13.85;11.40;;;7.60;99.90;;;;;;6243775;22;20008;-77
2021/11/26 01:58:15;;;;;;;15.25;11.57;;;7.60;99.90;;;;;;6243591;22;20016;-77
2021/11/26 02:00:44;;;;;;;14.52;11.10;;;7.70;99.90;;;;;;6243336;23;20095;-77
2021/11/26 02:03:10;;;;;;;14.40;11.00;;;7.70;99.90;;;;;;6245475;22;20001;-77
2021/11/26 02:05:35;;;;;;;12.35;10.82;;;7.70;99.90;;;;;;6245613;22;20380;-77
2021/11/26 02:08:01;;;;;;;15.73;11.88;;;7.70;99.90;;;;;;6245856;23;20027;-77
2021/11/26 02:10:27;;;;;;;14.30;10.88;;;7.60;99.90;;;;;;6245440;22;20030;-77
2021/11/26 02:12:53;;;;;;;13.00;10.70;;;7.70;99.90;;;;;;6245640;22;20000;-77
2021/11/26 02:15:22;;;;;;;12.50;9.57;;;7.70;99.90;;;;;;6245814;22;20004;-77
2021/11/26 02:17:49;;;;;;;12.85;10.55;;;7.70;99.90;;;;;;6245499;22;20004;-77
2021/11/26 02:20:18;;;;;;;14.98;10.40;;;7.70;99.90;;;;;;6245335;22;20000;-77
2021/11/26 02:22:44;;;;;;;11.45;10.25;;;7.70;99.90;;;;;;6245305;22;20371;-77
2021/11/26 02:25:11;;;;;;;13.10;10.63;;;7.70;99.90;;;;;;6243980;23;20038;-77
2021/11/26 02:27:37;;;;;;;16.70;11.18;;;7.70;99.90;;;;;;6245454;22;20000;-77
2021/11/26 02:30:13;;;;;;;13.20;10.43;;;7.70;99.90;;;;;;6245387;22;20004;-77
2021/11/26 02:32:38;;;;;;;16.45;11.52;;;7.70;99.90;;;;;;6245564;22;20031;-77
2021/11/26 02:35:05;;;;;;;17.05;11.50;;;7.70;99.90;;;;;;6243822;23;20031;-77
2021/11/26 02:37:30;;;;;;;15.00;11.68;;;7.70;99.90;;;;;;6245573;22;20071;-77
2021/11/26 02:39:57;;;;;;;13.77;11.00;;;7.70;99.90;;;;;;6245598;22;20020;-77
2021/11/26 02:42:24;;;;;;;15.20;11.23;;;7.70;99.90;;;;;;6245408;22;20444;-77
2021/11/26 02:44:50;;;;;;;14.88;11.15;;;7.70;99.90;;;;;;6245608;22;20367;-77
2021/11/26 02:47:16;;;;;;;14.90;10.73;;;7.70;99.90;;;;;;6245473;23;20023;-77
2021/11/26 02:49:41;;;;;;;18.98;11.90;;;7.70;99.90;;;;;;6243495;23;20182;-77
2021/11/26 02:52:07;;;;;;;14.35;10.93;;;7.70;99.90;;;;;;6245409;23;19996;-77
2021/11/26 02:54:33;;;;;;;12.75;10.27;;;7.70;99.90;;;;;;6243369;23;20004;-78
2021/11/26 02:56:59;;;;;;;15.63;11.05;;;7.70;99.90;;;;;;6244835;23;20321;-77
2021/11/26 02:59:25;;;;;;;15.23;11.65;;;7.70;99.90;;;;;;6244686;23;20008;-77
2021/11/26 03:01:50;;;;;;;14.45;11.02;;;7.70;99.90;;;;;;6245171;23;20039;-77
2021/11/26 03:04:16;;;;;;;13.55;11.98;;;7.70;99.90;;;;;;6243228;23;20004;-77
2021/11/26 03:06:42;;;;;;;15.75;11.98;;;7.70;99.90;;;;;;6245196;22;20441;-77
2021/11/26 03:09:08;;;;;;;15.63;11.52;;;7.70;99.90;;;;;;6244964;23;20027;-78
2021/11/26 03:11:34;;;;;;;14.02;11.48;;;7.70;99.90;;;;;;6243091;23;20380;-77
2021/11/26 03:13:59;;;;;;;14.88;11.10;;;7.70;99.90;;;;;;6243406;23;20005;-77
2021/11/26 03:16:25;;;;;;;13.50;10.40;;;7.70;99.90;;;;;;6244760;23;20005;-77
2021/11/26 03:18:52;;;;;;;15.00;11.63;;;7.70;99.90;;;;;;6243082;23;20035;-77
2021/11/26 03:21:18;;;;;;;16.75;11.52;;;7.70;99.90;;;;;;6245084;22;20385;-77
2021/11/26 03:23:43;;;;;;;13.70;11.18;;;7.70;99.90;;;;;;6245032;23;20024;-77
2021/11/26 03:26:09;;;;;;;13.63;11.30;;;7.80;99.90;;;;;;6243023;23;20372;-78
2021/11/26 03:28:35;;;;;;;13.25;10.80;;;7.80;99.90;;;;;;6243191;23;20054;-78
2021/11/26 03:31:00;;;;;;;13.35;11.07;;;7.80;99.90;;;;;;6244794;22;20004;-77
2021/11/26 03:33:27;;;;;;;12.55;10.68;;;7.80;99.90;;;;;;6244716;22;20079;-77
2021/11/26 03:35:53;;;;;;;14.18;11.00;;;7.80;99.90;;;;;;6244824;22;20008;-77
2021/11/26 03:38:19;;;;;;;11.52;10.32;;;7.80;99.90;;;;;;6244445;23;20005;-78
2021/11/26 03:40:45;;;;;;;12.10;10.32;;;7.80;99.90;;;;;;6242952;23;20008;-78
2021/11/26 03:43:11;;;;;;;13.38;10.52;;;7.80;99.90;;;;;;6244877;22;20454;-78
2021/11/26 03:45:37;;;;;;;13.15;10.68;;;7.70;99.90;;;;;;6243171;23;20103;-78
2021/11/26 03:48:04;;;;;;;14.93;10.30;;;7.70;99.90;;;;;;6242784;23;20143;-78
2021/11/26 03:50:30;;;;;;;16.75;11.93;;;7.70;99.90;;;;;;6244686;22;20031;-77
2021/11/26 03:52:56;;;;;;;12.20;10.40;;;7.70;99.90;;;;;;6242955;23;20332;-77
2021/11/26 03:55:30;;;;;;;15.95;10.85;;;7.70;99.90;;;;;;6242923;23;20369;-78
2021/11/26 03:57:58;;;;;;;14.07;11.88;;;7.70;99.90;;;;;;6242617;23;20371;-78
2021/11/26 04:00:24;;;;;;;15.95;12.43;;;7.70;99.90;;;;;;6242605;23;20062;-78
2021/11/26 04:02:50;;;;;;;14.15;11.10;;;7.70;99.90;;;;;;6242797;23;20498;-78
2021/11/26 04:05:17;;;;;;;16.02;11.88;;;7.70;99.90;;;;;;6243032;23;20428;-77
2021/11/26 04:07:43;;;;;;;15.18;11.45;;;7.70;99.90;;;;;;6242528;23;20455;-77
2021/11/26 04:10:11;;;;;;;17.08;12.45;;;7.70;99.90;;;;;;6242749;23;20087;-77
2021/11/26 04:12:38;;;;;;;16.42;12.68;;;7.80;99.90;;;;;;6242819;23;20011;-77
2021/11/26 04:15:08;;;;;;;12.65;10.50;;;7.70;99.90;;;;;;6244573;22;20078;-77
2021/11/26 04:17:34;;;;;;;15.00;11.85;;;7.80;99.90;;;;;;6244198;22;20494;-77
2021/11/26 04:20:00;;;;;;;18.42;12.75;;;7.80;99.90;;;;;;6242577;23;20008;-77
2021/11/26 04:22:26;;;;;;;15.77;11.85;;;7.80;99.90;;;;;;6244048;22;20058;-77
2021/11/26 04:24:52;;;;;;;15.57;10.98;;;7.70;99.90;;;;;;6242700;23;20379;-77
2021/11/26 04:27:17;;;;;;;21.92;13.25;;;7.70;99.90;;;;;;6242458;23;20008;-77
2021/11/26 04:29:43;;;;;;;17.90;12.85;;;7.70;99.90;;;;;;6244378;23;20023;-77
2021/11/26 04:32:09;;;;;;;18.77;12.52;;;7.70;99.90;;;;;;6244188;22;20050;-77
2021/11/26 04:34:35;;;;;;;15.70;11.23;;;7.70;99.90;;;;;;6242319;23;20000;-77
2021/11/26 04:37:00;;;;;;;14.38;11.05;;;7.70;99.90;;;;;;6244466;22;19996;-77
2021/11/26 04:39:26;;;;;;;16.10;11.95;;;7.70;99.90;;;;;;6244376;23;20082;-78
2021/11/26 04:42:04;;;;;;;13.85;11.80;;;7.70;99.90;;;;;;6245422;23;20071;-80
2021/11/26 04:44:29;;;;;;;16.60;11.13;;;7.70;99.90;;;;;;6244991;23;20023;-77
2021/11/26 04:46:55;;;;;;;14.05;11.77;;;7.70;99.90;;;;;;6245848;23;20027;-78
2021/11/26 04:49:21;;;;;;;14.52;11.85;;;7.70;99.90;;;;;;6243112;23;20004;-77
2021/11/26 04:51:46;;;;;;;13.57;10.60;;;7.70;99.90;;;;;;6242620;23;20038;-77
2021/11/26 04:54:12;;;;;;;13.38;10.73;;;7.70;99.90;;;;;;6242638;23;20004;-77
2021/11/26 04:56:38;;;;;;;16.58;12.05;;;7.70;99.90;;;;;;6242727;23;20008;-77
2021/11/26 04:59:03;;;;;;;15.80;11.98;;;7.70;99.90;;;;;;6242241;23;20440;-77
2021/11/26 05:01:29;;;;;;;17.42;12.70;;;7.70;99.90;;;;;;6244035;23;20333;-77
2021/11/26 05:03:55;;;;;;;17.38;11.48;;;7.70;99.90;;;;;;6242658;23;20000;-77
2021/11/26 05:06:21;;;;;;;15.48;12.20;;;7.70;99.90;;;;;;6243867;23;20006;-77
2021/11/26 05:08:46;;;;;;;14.48;11.25;;;7.80;99.90;;;;;;6242184;23;20383;-77
2021/11/26 05:11:12;;;;;;;14.65;11.13;;;7.70;99.90;;;;;;6244085;22;20034;-77
2021/11/26 05:13:43;;;;;;;12.43;9.80;;;7.80;99.90;;;;;;6242326;23;20008;-77
2021/11/26 05:16:13;;;;;;;16.08;11.30;;;7.80;99.90;;;;;;6243836;23;20082;-77
2021/11/26 05:18:42;;;;;;;16.50;11.90;;;7.80;99.90;;;;;;6243485;22;20000;-77
2021/11/26 05:21:08;;;;;;;18.05;12.35;;;7.80;99.90;;;;;;6242258;23;20394;-77
2021/11/26 05:23:34;;;;;;;17.25;12.27;;;7.80;99.90;;;;;;6242280;23;20035;-77
2021/11/26 05:26:00;;;;;;;15.90;11.48;;;7.80;99.90;;;;;;6243775;22;20339;-77
2021/11/26 05:28:26;;;;;;;14.77;10.93;;;7.80;99.90;;;;;;6243742;22;20000;-77
2021/11/26 05:30:52;;;;;;;14.95;10.95;;;7.80;99.90;;;;;;6242271;23;20008;-77
2021/11/26 05:33:18;;;;;;;15.88;11.57;;;7.80;99.90;;;;;;6243883;22;20091;-77
2021/11/26 05:35:44;;;;;;;17.50;12.13;;;7.70;99.90;;;;;;6244543;23;20011;-77
2021/11/26 05:38:09;;;;;;;14.88;11.50;;;7.80;99.90;;;;;;6244307;23;20321;-77
2021/11/26 05:40:35;;;;;;;15.27;10.77;;;7.80;99.90;;;;;;6244098;23;20057;-77
2021/11/26 05:43:02;;;;;;;18.15;12.48;;;7.70;99.90;;;;;;6244259;23;20004;-77
2021/11/26 05:45:28;;;;;;;17.20;10.98;;;7.70;99.90;;;;;;6245947;22;20075;-77
2021/11/26 05:47:53;;;;;;;15.52;11.23;;;7.70;99.90;;;;;;6244205;23;20035;-77
2021/11/26 05:50:20;;;;;;;14.65;11.25;;;7.70;99.90;;;;;;6244030;23;20012;-77
2021/11/26 05:52:47;;;;;;;14.75;10.82;;;7.70;99.90;;;;;;6244294;23;20065;-77
2021/11/26 05:55:16;;;;;;;16.83;11.77;;;7.70;99.90;;;;;;6244147;23;20008;-77
2021/11/26 05:57:42;;;;;;;16.70;12.23;;;7.70;99.90;;;;;;6244008;23;20008;-77
2021/11/26 06:00:11;;;;;;;18.90;12.32;;;7.70;99.90;;;;;;6243690;23;20344;-77
2021/11/26 06:02:37;;;;;;;17.08;11.68;;;7.70;99.90;;;;;;6245432;22;20067;-77
2021/11/26 06:05:04;;;;;;;15.35;11.23;;;7.70;99.90;;;;;;6243922;23;20030;-77
2021/11/26 06:07:29;;;;;;;15.93;11.63;;;7.70;99.90;;;;;;6243967;23;20475;-77
2021/11/26 06:09:55;;;;;;;14.57;11.13;;;7.70;99.90;;;;;;6243882;23;20000;-77
2021/11/26 06:12:21;;;;;;;15.30;10.98;;;7.70;99.90;;;;;;6245683;23;20007;-77
2021/11/26 06:14:49;;;;;;;20.25;12.23;;;7.70;99.90;;;;;;6243618;23;20000;-77
2021/11/26 06:17:14;;;;;;;22.15;12.70;;;7.70;99.90;;;;;;6245427;22;20004;-77
2021/11/26 06:19:40;;;;;;;26.73;14.60;;;7.60;99.90;;;;;;6245435;23;20424;-77
2021/11/26 06:22:06;;;;;;;23.13;13.70;;;7.60;99.90;;;;;;6245426;23;20054;-77
2021/11/26 06:24:32;;;;;;;20.92;13.88;;;7.50;99.90;;;;;;6243962;23;20004;-77
2021/11/26 06:26:58;;;;;;;19.02;13.38;;;7.50;99.90;;;;;;6243769;23;20087;-77
2021/11/26 06:29:23;;;;;;;15.85;11.80;;;7.60;99.90;;;;;;6245274;22;20008;-77
2021/11/26 06:31:49;;;;;;;22.50;13.93;;;7.60;99.90;;;;;;6245298;23;20004;-77
2021/11/26 06:34:15;;;;;;;18.73;12.10;;;7.60;99.90;;;;;;6245562;22;20368;-77
2021/11/26 06:36:41;;;;;;;15.13;11.15;;;7.60;99.90;;;;;;6243582;23;20008;-77
2021/11/26 06:39:06;;;;;;;15.77;11.02;;;7.60;99.90;;;;;;6243685;23;20458;-77
2021/11/26 06:41:32;;;;;;;12.98;10.10;;;7.60;99.90;;;;;;6243757;23;20336;-77
2021/11/26 06:43:58;;;;;;;18.25;11.05;;;7.60;99.90;;;;;;6243646;23;20084;-77
2021/11/26 06:46:25;;;;;;;23.65;14.07;;;7.60;99.90;;;;;;6244742;23;20000;-77
2021/11/26 06:48:51;;;;;;;46.50;23.42;;;7.60;99.90;;;;;;6243507;23;20008;-77
2021/11/26 06:51:16;;;;;;;83.10;41.70;;;7.50;99.90;;;;;;6243610;23;20363;-77
2021/11/26 06:53:42;;;;;;;136.18;60.92;;;7.50;99.90;;;;;;6243609;23;20012;-77
2021/11/26 06:56:08;;;;;;;89.55;45.45;;;7.50;99.90;;;;;;6245271;23;20383;-77
2021/11/26 06:58:34;;;;;;;72.88;36.05;;;7.50;99.90;;;;;;6244196;22;20016;-77
2021/11/26 07:00:59;;;;;;;54.80;27.52;;;7.60;99.90;;;;;;6243660;23;20349;-77
2021/11/26 07:03:26;;;;;;;38.63;21.38;;;7.60;99.90;;;;;;6243478;23;20444;-77
2021/11/26 07:05:51;;;;;;;27.65;16.20;;;7.60;99.90;;;;;;6244867;23;20008;-77
2021/11/26 07:08:20;;;;;;;27.30;17.02;;;7.60;99.90;;;;;;6244791;23;20008;-77
2021/11/26 07:10:46;;;;;;;55.10;23.75;;;7.60;99.90;;;;;;6246546;22;20004;-77
2021/11/26 07:13:12;;;;;;;50.45;24.65;;;7.60;99.90;;;;;;6246594;23;20061;-77
2021/11/26 07:15:38;;;;;;;38.13;20.77;;;7.60;99.90;;;;;;6244513;23;20102;-77
2021/11/26 07:18:04;;;;;;;28.10;16.98;;;7.60;99.90;;;;;;6245746;22;20443;-77
2021/11/26 07:20:30;;;;;;;29.92;18.20;;;7.70;99.90;;;;;;6244403;23;20074;-77
2021/11/26 07:22:59;;;;;;;33.83;18.88;;;7.70;99.90;;;;;;6245865;22;20259;-77
2021/11/26 07:25:25;;;;;;;40.33;21.35;;;7.70;99.90;;;;;;6244796;23;20001;-77
2021/11/26 07:27:51;;;;;;;38.25;20.73;;;7.70;99.90;;;;;;6244978;23;20083;-77
2021/11/26 07:30:17;;;;;;;35.17;19.60;;;7.80;99.90;;;;;;6244794;23;20031;-77
2021/11/26 07:32:43;;;;;;;23.60;13.90;;;7.80;99.90;;;;;;6246501;23;20006;-77
2021/11/26 07:35:09;;;;;;;16.85;11.77;;;7.80;99.90;;;;;;6245069;23;20004;-77
2021/11/26 07:37:36;;;;;;;16.52;10.32;;;7.80;99.90;;;;;;6246771;22;20015;-77
2021/11/26 07:40:04;;;;;;;12.25;9.15;;;7.90;99.90;;;;;;6246356;22;20079;-77
2021/11/26 07:42:30;;;;;;;12.80;9.65;;;7.90;99.90;;;;;;6245011;23;20004;-77
2021/11/26 07:44:55;;;;;;;15.48;10.65;;;7.90;99.90;;;;;;6246332;22;20011;-77
2021/11/26 07:47:21;;;;;;;16.13;10.93;;;7.90;99.90;;;;;;6244340;23;20007;-77
2021/11/26 07:49:51;;;;;;;18.90;12.88;;;8.00;99.90;;;;;;6245798;22;20006;-77
2021/11/26 07:52:17;;;;;;;26.48;13.85;;;8.00;99.90;;;;;;6244962;23;20004;-77
2021/11/26 07:54:43;;;;;;;24.10;14.93;;;8.00;99.90;;;;;;6246736;23;20137;-77
2021/11/26 07:57:10;;;;;;;30.27;17.95;;;8.00;99.90;;;;;;6245031;23;20028;-83
2021/11/26 07:59:36;;;;;;;84.40;33.60;;;8.00;99.90;;;;;;6246290;22;20015;-77
2021/11/26 08:02:03;;;;;;;107.72;45.40;;;8.00;99.90;;;;;;6244876;23;20031;-77
2021/11/26 08:04:28;;;;;;;130.38;49.30;;;8.00;99.90;;;;;;6244864;23;20000;-77
2021/11/26 08:06:54;;;;;;;128.77;51.47;;;8.00;99.90;;;;;;6246467;23;20050;-77
2021/11/26 08:09:20;;;;;;;111.53;45.70;;;8.00;99.90;;;;;;6246690;22;20432;-77
2021/11/26 08:11:48;;;;;;;110.13;44.67;;;8.00;99.90;;;;;;6246808;22;20079;-76
2021/11/26 08:14:15;;;;;;;108.38;43.83;;;8.10;99.90;;;;;;6244529;23;20421;-76
2021/11/26 08:16:42;;;;;;;84.68;36.55;;;8.10;99.90;;;;;;6245678;22;20011;-76
2021/11/26 08:19:09;;;;;;;70.40;31.15;;;8.00;99.90;;;;;;6244281;22;20336;-83
2021/11/26 08:21:35;;;;;;;95.90;36.10;;;8.10;99.90;;;;;;6243042;23;20008;-83
2021/11/26 08:24:02;;;;;;;63.20;27.77;;;8.00;99.90;;;;;;6244442;22;19997;-82
2021/11/26 08:26:28;;;;;;;76.65;31.15;;;8.00;99.90;;;;;;6244128;22;20000;-83
2021/11/26 08:28:54;;;;;;;62.50;28.80;;;8.00;99.90;;;;;;6242529;23;20381;-82
2021/11/26 08:31:20;;;;;;;87.15;32.53;;;8.00;99.90;;;;;;6244086;23;20004;-83
2021/11/26 08:33:45;;;;;;;94.57;34.83;;;8.00;99.90;;;;;;6242576;23;20004;-83
2021/11/26 08:36:11;;;;;;;68.85;30.65;;;8.00;99.90;;;;;;6244093;23;20243;-82
2021/11/26 08:38:37;;;;;;;63.83;27.85;;;8.00;99.90;;;;;;6244028;22;20040;-83
2021/11/26 08:41:03;;;;;;;61.88;29.08;;;8.00;99.90;;;;;;6244119;23;20362;-82
2021/11/26 08:43:28;;;;;;;53.17;23.65;;;8.00;99.90;;;;;;6244070;23;20421;-82
2021/11/26 08:45:54;;;;;;;49.72;22.70;;;8.00;99.90;;;;;;6242565;23;20004;-83
2021/11/26 08:48:20;;;;;;;49.67;19.65;;;8.00;99.90;;;;;;6243703;22;20004;-83
2021/11/26 08:50:46;;;;;;;37.10;18.15;;;8.00;99.90;;;;;;6244062;23;20000;-82
2021/11/26 08:53:13;;;;;;;30.25;17.52;;;8.00;99.90;;;;;;6243999;22;20031;-83
2021/11/26 08:55:56;;;;;;;33.55;17.10;;;8.00;99.90;;;;;;6244232;22;20000;-83
2021/11/26 08:58:22;;;;;;;37.28;18.92;;;8.10;99.90;;;;;;6240326;23;20012;-83
2021/11/26 09:00:48;;;;;;;35.85;17.95;;;8.10;99.90;;;;;;6242486;23;20004;-82
2021/11/26 09:03:15;;;;;;;28.80;16.58;;;8.10;99.90;;;;;;6243901;22;19996;-83
2021/11/26 09:05:42;;;;;;;34.42;17.67;;;8.10;99.90;;;;;;6242600;23;20075;-82
2021/11/26 09:08:13;;;;;;;31.02;17.15;;;8.20;99.90;;;;;;6242819;23;20332;-83
2021/11/26 09:10:40;;;;;;;30.83;16.67;;;8.20;99.90;;;;;;6244884;22;20084;-83
2021/11/26 09:13:07;;;;;;;30.63;16.73;;;8.20;99.90;;;;;;6244976;22;20416;-82
2021/11/26 09:15:33;;;;;;;25.55;15.25;;;8.30;99.90;;;;;;6245213;22;20004;-76
2021/11/26 09:17:59;;;;;;;35.30;18.42;;;8.30;99.90;;;;;;6245146;22;20008;-76
2021/11/26 09:20:26;;;;;;;35.47;16.75;;;8.30;99.90;;;;;;6244073;22;20000;-76
2021/11/26 09:22:51;;;;;;;29.70;15.75;;;8.30;99.90;;;;;;6242113;23;20000;-76
2021/11/26 09:25:18;;;;;;;29.63;16.55;;;8.20;99.90;;;;;;6243934;23;20000;-77
2021/11/26 09:27:44;;;;;;;27.33;14.65;;;8.20;99.90;;;;;;6242049;23;19996;-76
2021/11/26 09:30:18;;;;;;;25.60;14.32;;;8.20;99.90;;;;;;6243870;22;20047;-76
2021/11/26 09:32:44;;;;;;;22.45;13.48;;;8.20;99.90;;;;;;6243963;22;20075;-76
2021/11/26 09:35:10;;;;;;;24.92;14.82;;;8.20;99.90;;;;;;6242265;23;20092;-76
2021/11/26 09:37:37;;;;;;;22.65;12.50;;;8.30;99.90;;;;;;6242133;23;20020;-76
2021/11/26 09:40:05;;;;;;;22.05;12.90;;;8.30;99.90;;;;;;6243758;22;20447;-76
2021/11/26 09:42:31;;;;;;;37.40;18.02;;;8.30;99.90;;;;;;6243439;22;20001;-76
2021/11/26 09:45:00;;;;;;;34.58;17.88;;;8.40;99.90;;;;;;6241717;23;20010;-76
2021/11/26 09:47:26;;;;;;;25.20;14.13;;;8.40;99.90;;;;;;6243873;22;20000;-76
2021/11/26 09:49:52;;;;;;;20.27;11.73;;;8.50;99.90;;;;;;6243533;23;20042;-76
2021/11/26 09:52:17;;;;;;;21.23;11.48;;;8.50;99.90;;;;;;6242079;23;20008;-76
2021/11/26 09:54:45;;;;;;;23.40;12.85;;;8.60;99.90;;;;;;6243786;22;20000;-76
2021/11/26 09:57:12;;;;;;;21.90;13.73;;;8.70;99.90;;;;;;6242162;23;20475;-76
2021/11/26 09:59:39;;;;;;;23.33;14.20;;;8.80;99.90;;;;;;6243064;22;20386;-76
2021/11/26 10:02:20;;;;;;;22.75;13.23;;;8.80;99.90;;;;;;6243834;22;20028;-76
2021/11/26 10:04:57;;;;;;;16.15;11.02;;;8.90;99.90;;;;;;6243682;22;20004;-76
2021/11/26 10:07:23;;;;;;;12.10;9.27;;;8.90;99.90;;;;;;6243357;22;20387;-76
2021/11/26 10:09:50;;;;;;;9.70;7.82;;;8.90;99.90;;;;;;6242067;23;20008;-76
2021/11/26 10:12:17;;;;;;;8.57;6.53;;;8.90;99.90;;;;;;6243569;22;20084;-76
2021/11/26 10:14:45;;;;;;;14.13;10.10;;;8.90;99.90;;;;;;6242046;23;20004;-76
2021/11/26 10:17:17;;;;;;;13.80;9.68;;;8.90;99.90;;;;;;6243585;22;20436;-76
2021/11/26 10:19:46;;;;;;;14.85;9.57;;;8.90;99.90;;;;;;6243434;22;20058;-76
2021/11/26 10:22:21;;;;;;;13.43;9.02;;;8.90;99.90;;;;;;6243721;23;20328;-76
2021/11/26 10:25:10;;;;;;;14.93;9.95;;;8.90;99.90;;;;;;6245577;22;19996;-76
2021/11/26 10:27:46;;;;;;;17.52;11.25;;;9.00;99.90;;;;;;6245552;22;20008;-76
2021/11/26 10:30:25;;;;;;;13.35;10.20;;;9.00;99.90;;;;;;6243763;23;20011;-76
2021/11/26 10:33:05;;;;;;;19.65;11.27;;;9.00;99.90;;;;;;6243625;23;20337;-76
2021/11/26 10:35:38;;;;;;;17.50;11.50;;;9.10;99.90;;;;;;6245179;22;20451;-76
2021/11/26 10:38:15;;;;;;;17.17;11.15;;;9.10;99.90;;;;;;6243077;23;20409;-76
2021/11/26 10:40:49;;;;;;;15.93;10.70;;;9.20;99.90;;;;;;6243768;23;20004;-76
2021/11/26 10:47:01;;;;;;;14.88;11.15;;;9.30;99.90;;;;;;6245250;22;20408;-76
2021/11/26 10:52:18;;;;;;;15.85;10.95;;;9.40;99.90;;;;;;6246426;22;20016;-76
2021/11/26 11:00:08;;;;;;;12.10;9.55;;;9.50;99.90;;;;;;6244926;22;20440;-76
2021/11/26 11:02:45;;;;;;;17.48;9.98;;;9.50;99.90;;;;;;6243647;23;20370;-76
2021/11/26 11:05:33;;;;;;;14.75;10.15;;;9.50;99.90;;;;;;6243487;23;20000;-76
2021/11/26 11:08:01;;;;;;;14.27;9.40;;;9.60;99.90;;;;;;6243315;23;20008;-76
2021/11/26 11:10:34;;;;;;;14.23;9.85;;;9.60;99.90;;;;;;6245066;22;20008;-76
2021/11/26 11:13:13;;;;;;;17.45;10.13;;;9.60;99.90;;;;;;6243322;23;20008;-76
2021/11/26 11:15:40;;;;;;;13.48;9.45;;;9.70;99.90;;;;;;6244835;23;20000;-76
2021/11/26 11:18:07;;;;;;;12.20;8.52;;;9.70;99.90;;;;;;6243064;23;20377;-76
2021/11/26 11:20:34;;;;;;;11.35;8.52;;;9.70;99.90;;;;;;6243299;23;20000;-83
2021/11/26 11:23:07;;;;;;;12.68;8.80;;;9.70;99.90;;;;;;6247469;22;20020;-79
2021/11/26 11:25:33;;;;;;;15.15;10.38;;;9.80;99.90;;;;;;6245980;22;20428;-83
2021/11/26 11:28:06;;;;;;;11.18;8.82;;;9.90;99.90;;;;;;6246412;22;20027;-83
2021/11/26 11:30:33;;;;;;;12.43;8.93;;;10.00;99.90;;;;;;6245279;23;20081;-83
2021/11/26 11:32:59;;;;;;;12.93;8.70;;;10.10;99.90;;;;;;6245012;22;20007;-83
2021/11/26 11:35:30;;;;;;;11.07;8.70;;;10.10;99.90;;;;;;6244837;22;20036;-83
2021/11/26 11:37:59;;;;;;;11.77;8.40;;;10.20;99.90;;;;;;6243010;23;20004;-83
2021/11/26 11:40:35;;;;;;;11.50;9.30;;;10.30;99.90;;;;;;6244910;22;20000;-83
2021/11/26 11:43:09;;;;;;;10.07;8.35;;;10.30;99.90;;;;;;6243119;23;20010;-83
2021/11/26 11:45:37;;;;;;;11.50;9.00;;;10.40;99.90;;;;;;6244847;23;20079;-83
2021/11/26 11:48:05;;;;;;;9.60;7.57;;;10.50;99.90;;;;;;6244271;22;20004;-83
2021/11/26 11:50:32;;;;;;;11.07;7.88;;;10.60;99.90;;;;;;6243009;23;20008;-83
2021/11/26 11:53:00;;;;;;;9.32;7.53;;;10.60;99.90;;;;;;6244882;22;19996;-83
2021/11/26 11:55:31;;;;;;;10.75;7.30;;;10.60;99.90;;;;;;6243212;23;20456;-83
2021/11/26 11:58:15;;;;;;;9.85;7.18;;;10.70;99.90;;;;;;6242556;23;20432;-82
2021/11/26 12:00:43;;;;;;;8.65;6.63;;;10.70;99.90;;;;;;6242940;23;20012;-83
2021/11/26 12:03:31;;;;;;;7.57;5.95;;;10.70;99.90;;;;;;6242732;23;20004;-82
2021/11/26 12:06:00;;;;;;;7.30;6.20;;;10.80;99.90;;;;;;6243729;23;20000;-83
2021/11/26 12:08:26;;;;;;;9.27;6.65;;;10.80;99.90;;;;;;6244122;22;20336;-83
2021/11/26 12:10:55;;;;;;;7.07;5.45;;;10.90;99.90;;;;;;6244468;22;20035;-83
2021/11/26 12:13:33;;;;;;;5.00;4.50;;;10.90;99.90;;;;;;6242933;23;20095;-83
2021/11/26 12:16:14;;;;;;;6.95;4.97;;;10.80;99.90;;;;;;6244211;22;20014;-83
2021/11/26 12:18:51;;;;;;;9.02;5.53;;;10.80;99.90;;;;;;6244085;22;20135;-83
2021/11/26 12:21:29;;;;;;;6.57;5.75;;;10.70;99.90;;;;;;6244114;22;20005;-82
2021/11/26 12:24:21;;;;;;;7.38;5.63;;;10.80;99.90;;;;;;6242838;23;20000;-83
2021/11/26 12:26:55;;;;;;;7.40;5.72;;;10.80;99.90;;;;;;6244280;22;20078;-83
2021/11/26 12:29:30;;;;;;;6.85;5.63;;;10.80;99.90;;;;;;6244060;22;20007;-83
2021/11/26 12:32:17;;;;;;;9.18;5.97;;;10.80;99.90;;;;;;6244352;22;20008;-83
2021/11/26 12:34:51;;;;;;;8.77;5.47;;;10.80;99.90;;;;;;6242682;23;19996;-83
2021/11/26 12:37:18;;;;;;;10.85;6.45;;;10.80;99.90;;;;;;6244375;22;20412;-82
2021/11/26 12:39:44;;;;;;;8.40;5.22;;;10.80;99.90;;;;;;6242589;23;20332;-83
2021/11/26 12:42:10;;;;;;;12.00;6.70;;;10.90;99.90;;;;;;6244080;22;20044;-83
2021/11/26 12:44:35;;;;;;;12.65;6.65;;;10.90;99.90;;;;;;6242191;23;20008;-82
2021/11/26 12:47:09;;;;;;;13.68;7.15;;;10.90;99.90;;;;;;6242374;23;20087;-83
2021/11/26 12:52:10;;;;;;;14.25;9.15;;;10.80;99.90;;;;;;6245044;22;20012;-83
2021/11/26 12:54:44;;;;;;;16.30;8.88;;;10.80;99.90;;;;;;6242713;23;20095;-83